sensor_id;sensor_type;location;lat;lon;timestamp;pressure;altitude;pressure_sealevel;temperature;humidity
12879;BME280;20617;49.476;10.986;2023-05-03T00:00:25;99127.63;;;10.58;100.00
12879;BME280;20617;49.476;10.986;2023-05-03T00:02:30;99122.38;;;10.60;100.00
12879;BME280;20617;49.476;10.986;2023-05-03T00:04:37;99119.88;;;10.57;100.00
12879;BME280;20617;49.476;10.986;2023-05-03T00:06:42;99113.75;;;10.58;100.00
12879;BME280;20617;49.476;10.986;2023-05-03T00:08:47;99123.31;;;10.57;100.00
12879;BME280;20617;49.476;10.986;2023-05-03T00:10:58;99126.75;;;10.59;100.00
12879;BME280;20617;49.476;10.986;2023-05-03T00:13:03;99128.78;;;10.48;100.00
12879;BME280;20617;49.476;10.986;2023-05-03T00:15:09;99119.19;;;10.50;100.00
12879;BME280;20617;49.476;10.986;2023-05-03T00:17:17;99120.84;;;10.53;100.00
12879;BME280;20617;49.476;10.986;2023-05-03T00:19:22;99122.56;;;10.54;100.00
12879;BME280;20617;49.476;10.986;2023-05-03T00:21:33;99127.72;;;10.55;100.00
12879;BME280;20617;49.476;10.986;2023-05-03T00:23:38;99114.75;;;10.54;100.00
12879;BME280;20617;49.476;10.986;2023-05-03T00:25:43;99122.50;;;10.55;100.00
12879;BME280;20617;49.476;10.986;2023-05-03T00:27:48;99118.16;;;10.56;100.00
12879;BME280;20617;49.476;10.986;2023-05-03T00:29:53;99117.28;;;10.57;100.00
12879;BME280;20617;49.476;10.986;2023-05-03T00:31:58;99120.06;;;10.49;100.00
12879;BME280;20617;49.476;10.986;2023-05-03T00:34:06;99115.88;;;10.43;100.00
12879;BME280;20617;49.476;10.986;2023-05-03T00:36:13;99122.81;;;10.45;100.00
12879;BME280;20617;49.476;10.986;2023-05-03T00:38:18;99119.28;;;10.47;100.00
12879;BME280;20617;49.476;10.986;2023-05-03T00:40:23;99111.50;;;10.46;100.00
12879;BME280;20617;49.476;10.986;2023-05-03T00:42:28;99101.13;;;10.44;100.00
12879;BME280;20617;49.476;10.986;2023-05-03T00:44:32;99106.28;;;10.46;100.00
12879;BME280;20617;49.476;10.986;2023-05-03T00:46:38;99107.16;;;10.46;100.00
12879;BME280;20617;49.476;10.986;2023-05-03T00:48:43;99114.19;;;10.42;100.00
12879;BME280;20617;49.476;10.986;2023-05-03T00:50:50;99107.53;;;10.32;100.00
12879;BME280;20617;49.476;10.986;2023-05-03T00:52:55;99110.94;;;10.34;100.00
12879;BME280;20617;49.476;10.986;2023-05-03T00:55:00;99110.03;;;10.35;100.00
12879;BME280;20617;49.476;10.986;2023-05-03T00:57:05;99104.88;;;10.34;100.00
12879;BME280;20617;49.476;10.986;2023-05-03T00:59:11;99102.31;;;10.32;100.00
12879;BME280;20617;49.476;10.986;2023-05-03T01:01:17;99103.22;;;10.31;100.00
12879;BME280;20617;49.476;10.986;2023-05-03T01:03:22;99103.19;;;10.33;100.00
12879;BME280;20617;49.476;10.986;2023-05-03T01:05:32;99103.97;;;10.35;100.00
12879;BME280;20617;49.476;10.986;2023-05-03T01:07:53;99098.78;;;10.35;100.00
12879;BME280;20617;49.476;10.986;2023-05-03T01:10:06;99101.44;;;10.33;100.00
12879;BME280;20617;49.476;10.986;2023-05-03T01:12:22;99098.00;;;10.33;100.00
12879;BME280;20617;49.476;10.986;2023-05-03T01:14:34;99090.34;;;10.25;100.00
12879;BME280;20617;49.476;10.986;2023-05-03T01:16:45;99099.91;;;10.25;100.00
12879;BME280;20617;49.476;10.986;2023-05-03T01:18:54;99096.50;;;10.23;100.00
12879;BME280;20617;49.476;10.986;2023-05-03T01:21:03;99094.88;;;10.18;100.00
12879;BME280;20617;49.476;10.986;2023-05-03T01:23:17;99088.09;;;10.13;100.00
12879;BME280;20617;49.476;10.986;2023-05-03T01:25:27;99088.28;;;10.05;100.00
12879;BME280;20617;49.476;10.986;2023-05-03T01:27:32;99092.75;;;10.00;100.00
12879;BME280;20617;49.476;10.986;2023-05-03T01:29:37;99081.72;;;9.92;100.00
12879;BME280;20617;49.476;10.986;2023-05-03T01:31:47;99078.28;;;9.90;100.00
12879;BME280;20617;49.476;10.986;2023-05-03T01:34:06;99091.31;;;9.88;100.00
12879;BME280;20617;49.476;10.986;2023-05-03T01:36:20;99086.16;;;9.87;100.00
12879;BME280;20617;49.476;10.986;2023-05-03T01:38:29;99090.53;;;9.86;100.00
12879;BME280;20617;49.476;10.986;2023-05-03T01:40:43;99089.66;;;9.86;100.00
12879;BME280;20617;49.476;10.986;2023-05-03T01:42:51;99085.31;;;9.86;100.00
12879;BME280;20617;49.476;10.986;2023-05-03T01:44:58;99093.97;;;9.87;100.00
12879;BME280;20617;49.476;10.986;2023-05-03T01:47:05;99095.75;;;9.85;100.00
12879;BME280;20617;49.476;10.986;2023-05-03T01:49:12;99091.53;;;9.81;100.00
12879;BME280;20617;49.476;10.986;2023-05-03T01:51:17;99089.88;;;9.78;100.00
12879;BME280;20617;49.476;10.986;2023-05-03T01:53:23;99093.34;;;9.77;100.00
12879;BME280;20617;49.476;10.986;2023-05-03T01:55:28;99086.69;;;9.67;100.00
12879;BME280;20617;49.476;10.986;2023-05-03T01:57:36;99083.22;;;9.66;100.00
12879;BME280;20617;49.476;10.986;2023-05-03T01:59:41;99089.31;;;9.65;100.00
12879;BME280;20617;49.476;10.986;2023-05-03T02:01:46;99095.38;;;9.66;100.00
12879;BME280;20617;49.476;10.986;2023-05-03T02:03:51;99090.13;;;9.67;100.00
12879;BME280;20617;49.476;10.986;2023-05-03T02:05:56;99091.06;;;9.65;100.00
12879;BME280;20617;49.476;10.986;2023-05-03T02:08:02;99092.81;;;9.63;100.00
12879;BME280;20617;49.476;10.986;2023-05-03T02:10:08;99097.25;;;9.59;100.00
12879;BME280;20617;49.476;10.986;2023-05-03T02:12:15;99089.53;;;9.56;100.00
12879;BME280;20617;49.476;10.986;2023-05-03T02:14:23;99096.53;;;9.54;100.00
12879;BME280;20617;49.476;10.986;2023-05-03T02:16:28;99092.25;;;9.51;100.00
12879;BME280;20617;49.476;10.986;2023-05-03T02:18:33;99097.56;;;9.47;100.00
12879;BME280;20617;49.476;10.986;2023-05-03T02:20:38;99096.72;;;9.45;100.00
12879;BME280;20617;49.476;10.986;2023-05-03T02:22:43;99103.81;;;9.40;100.00
12879;BME280;20617;49.476;10.986;2023-05-03T02:24:48;99103.84;;;9.38;100.00
12879;BME280;20617;49.476;10.986;2023-05-03T02:26:53;99100.38;;;9.38;100.00
12879;BME280;20617;49.476;10.986;2023-05-03T02:28:58;99096.97;;;9.36;100.00
12879;BME280;20617;49.476;10.986;2023-05-03T02:31:09;99095.25;;;9.35;100.00
12879;BME280;20617;49.476;10.986;2023-05-03T02:33:16;99099.59;;;9.34;100.00
12879;BME280;20617;49.476;10.986;2023-05-03T02:35:21;99095.28;;;9.33;100.00
12879;BME280;20617;49.476;10.986;2023-05-03T02:37:27;99098.72;;;9.34;100.00
12879;BME280;20617;49.476;10.986;2023-05-03T02:39:32;99096.13;;;9.34;100.00
12879;BME280;20617;49.476;10.986;2023-05-03T02:41:38;99090.06;;;9.35;100.00
12879;BME280;20617;49.476;10.986;2023-05-03T02:43:43;99100.53;;;9.32;100.00
12879;BME280;20617;49.476;10.986;2023-05-03T02:45:48;99097.94;;;9.32;100.00
12879;BME280;20617;49.476;10.986;2023-05-03T02:47:56;99097.09;;;9.29;100.00
12879;BME280;20617;49.476;10.986;2023-05-03T02:50:02;99101.53;;;9.26;100.00
12879;BME280;20617;49.476;10.986;2023-05-03T02:52:11;99100.69;;;9.25;100.00
12879;BME280;20617;49.476;10.986;2023-05-03T02:54:16;99102.44;;;9.23;100.00
12879;BME280;20617;49.476;10.986;2023-05-03T02:56:20;99102.53;;;9.20;100.00
12879;BME280;20617;49.476;10.986;2023-05-03T02:58:27;99104.28;;;9.18;100.00
12879;BME280;20617;49.476;10.986;2023-05-03T03:00:35;99112.13;;;9.17;100.00
12879;BME280;20617;49.476;10.986;2023-05-03T03:02:40;99103.59;;;9.10;100.00
12879;BME280;20617;49.476;10.986;2023-05-03T03:04:48;99103.72;;;9.05;100.00
12879;BME280;20617;49.476;10.986;2023-05-03T03:06:53;99103.88;;;8.98;100.00
12879;BME280;20617;49.476;10.986;2023-05-03T03:08:58;99097.94;;;8.93;100.00
12879;BME280;20617;49.476;10.986;2023-05-03T03:11:04;99100.56;;;8.91;100.00
12879;BME280;20617;49.476;10.986;2023-05-03T03:13:09;99098.91;;;8.87;100.00
12879;BME280;20617;49.476;10.986;2023-05-03T03:15:14;99099.88;;;8.83;100.00
12879;BME280;20617;49.476;10.986;2023-05-03T03:17:19;99105.91;;;8.83;100.00
12879;BME280;20617;49.476;10.986;2023-05-03T03:19:24;99107.59;;;8.86;100.00
12879;BME280;20617;49.476;10.986;2023-05-03T03:21:32;99105.84;;;8.88;100.00
12879;BME280;20617;49.476;10.986;2023-05-03T03:23:38;99111.91;;;8.87;100.00
12879;BME280;20617;49.476;10.986;2023-05-03T03:25:42;99115.38;;;8.88;100.00
12879;BME280;20617;49.476;10.986;2023-05-03T03:27:49;99123.16;;;8.88;100.00
12879;BME280;20617;49.476;10.986;2023-05-03T03:29:54;99120.63;;;8.84;100.00
12879;BME280;20617;49.476;10.986;2023-05-03T03:31:59;99119.94;;;8.76;100.00
12879;BME280;20617;49.476;10.986;2023-05-03T03:34:05;99115.59;;;8.75;100.00
12879;BME280;20617;49.476;10.986;2023-05-03T03:36:10;99113.13;;;8.71;100.00
12879;BME280;20617;49.476;10.986;2023-05-03T03:38:20;99122.94;;;8.56;100.00
12879;BME280;20617;49.476;10.986;2023-05-03T03:40:32;99120.41;;;8.53;100.00
12879;BME280;20617;49.476;10.986;2023-05-03T03:42:37;99125.53;;;8.56;100.00
12879;BME280;20617;49.476;10.986;2023-05-03T03:44:42;99123.75;;;8.58;100.00
12879;BME280;20617;49.476;10.986;2023-05-03T03:46:48;99125.47;;;8.59;100.00
12879;BME280;20617;49.476;10.986;2023-05-03T03:48:52;99129.81;;;8.57;100.00
12879;BME280;20617;49.476;10.986;2023-05-03T03:51:00;99134.16;;;8.57;100.00
12879;BME280;20617;49.476;10.986;2023-05-03T03:53:11;99128.97;;;8.57;100.00
12879;BME280;20617;49.476;10.986;2023-05-03T03:55:20;99128.97;;;8.57;100.00
12879;BME280;20617;49.476;10.986;2023-05-03T03:57:27;99131.56;;;8.57;100.00
12879;BME280;20617;49.476;10.986;2023-05-03T03:59:33;99135.84;;;8.59;100.00
12879;BME280;20617;49.476;10.986;2023-05-03T04:01:38;99134.09;;;8.60;100.00
12879;BME280;20617;49.476;10.986;2023-05-03T04:03:44;99136.63;;;8.65;100.00
12879;BME280;20617;49.476;10.986;2023-05-03T04:05:50;99136.56;;;8.68;100.00
12879;BME280;20617;49.476;10.986;2023-05-03T04:07:55;99139.09;;;8.69;100.00
12879;BME280;20617;49.476;10.986;2023-05-03T04:10:04;99142.59;;;8.68;100.00
12879;BME280;20617;49.476;10.986;2023-05-03T04:12:14;99146.03;;;8.69;100.00
12879;BME280;20617;49.476;10.986;2023-05-03T04:14:20;99142.59;;;8.67;100.00
12879;BME280;20617;49.476;10.986;2023-05-03T04:16:26;99147.00;;;8.65;100.00
12879;BME280;20617;49.476;10.986;2023-05-03T04:18:34;99149.66;;;8.60;100.00
12879;BME280;20617;49.476;10.986;2023-05-03T04:20:41;99153.25;;;8.54;100.00
12879;BME280;20617;49.476;10.986;2023-05-03T04:22:47;99157.56;;;8.55;100.00
12879;BME280;20617;49.476;10.986;2023-05-03T04:24:54;99154.09;;;8.55;100.00
12879;BME280;20617;49.476;10.986;2023-05-03T04:26:59;99160.13;;;8.57;100.00
12879;BME280;20617;49.476;10.986;2023-05-03T04:29:10;99154.91;;;8.57;100.00
12879;BME280;20617;49.476;10.986;2023-05-03T04:31:17;99163.56;;;8.57;100.00
12879;BME280;20617;49.476;10.986;2023-05-03T04:33:26;99164.41;;;8.58;100.00
12879;BME280;20617;49.476;10.986;2023-05-03T04:35:37;99169.56;;;8.61;100.00
12879;BME280;20617;49.476;10.986;2023-05-03T04:37:46;99178.19;;;8.61;100.00
12879;BME280;20617;49.476;10.986;2023-05-03T04:39:54;99187.94;;;8.50;100.00
12879;BME280;20617;49.476;10.986;2023-05-03T04:41:59;99192.34;;;8.47;100.00
12879;BME280;20617;49.476;10.986;2023-05-03T04:44:10;99193.19;;;8.47;100.00
12879;BME280;20617;49.476;10.986;2023-05-03T04:46:17;99200.97;;;8.47;100.00
12879;BME280;20617;49.476;10.986;2023-05-03T04:48:23;99203.69;;;8.39;100.00
12879;BME280;20617;49.476;10.986;2023-05-03T04:50:28;99196.78;;;8.38;100.00
12879;BME280;20617;49.476;10.986;2023-05-03T04:52:34;99195.84;;;8.44;100.00
12879;BME280;20617;49.476;10.986;2023-05-03T04:54:40;99200.19;;;8.42;100.00
12879;BME280;20617;49.476;10.986;2023-05-03T04:56:45;99206.38;;;8.33;100.00
12879;BME280;20617;49.476;10.986;2023-05-03T04:58:52;99210.59;;;8.37;100.00
12879;BME280;20617;49.476;10.986;2023-05-03T05:00:59;99208.06;;;8.34;100.00
12879;BME280;20617;49.476;10.986;2023-05-03T05:03:05;99208.00;;;8.37;100.00
12879;BME280;20617;49.476;10.986;2023-05-03T05:05:10;99205.41;;;8.37;100.00
12879;BME280;20617;49.476;10.986;2023-05-03T05:07:15;99205.38;;;8.41;100.00
12879;BME280;20617;49.476;10.986;2023-05-03T05:09:21;99205.25;;;8.48;100.00
12879;BME280;20617;49.476;10.986;2023-05-03T05:11:29;99208.56;;;8.56;100.00
12879;BME280;20617;49.476;10.986;2023-05-03T05:13:35;99201.53;;;8.63;100.00
12879;BME280;20617;49.476;10.986;2023-05-03T05:15:40;99198.91;;;8.65;100.00
12879;BME280;20617;49.476;10.986;2023-05-03T05:17:49;99210.94;;;8.69;100.00
12879;BME280;20617;49.476;10.986;2023-05-03T05:19:54;99202.22;;;8.71;100.00
12879;BME280;20617;49.476;10.986;2023-05-03T05:22:02;99203.00;;;8.76;100.00
12879;BME280;20617;49.476;10.986;2023-05-03T05:24:15;99208.13;;;8.79;100.00
12879;BME280;20617;49.476;10.986;2023-05-03T05:26:20;99204.81;;;8.71;100.00
12879;BME280;20617;49.476;10.986;2023-05-03T05:28:25;99210.19;;;8.62;100.00
12879;BME280;20617;49.476;10.986;2023-05-03T05:30:31;99206.59;;;8.69;100.00
12879;BME280;20617;49.476;10.986;2023-05-03T05:32:36;99212.44;;;8.80;100.00
12879;BME280;20617;49.476;10.986;2023-05-03T05:34:47;99214.00;;;8.89;100.00
12879;BME280;20617;49.476;10.986;2023-05-03T05:36:59;99215.63;;;8.95;100.00
12879;BME280;20617;49.476;10.986;2023-05-03T05:39:07;99217.22;;;9.02;100.00
12879;BME280;20617;49.476;10.986;2023-05-03T05:41:12;99217.94;;;9.07;100.00
12879;BME280;20617;49.476;10.986;2023-05-03T05:43:18;99214.44;;;9.11;100.00
12879;BME280;20617;49.476;10.986;2023-05-03T05:45:23;99214.44;;;9.10;100.00
12879;BME280;20617;49.476;10.986;2023-05-03T05:47:30;99217.94;;;9.07;100.00
12879;BME280;20617;49.476;10.986;2023-05-03T05:49:37;99220.75;;;8.98;100.00
12879;BME280;20617;49.476;10.986;2023-05-03T05:51:48;99215.97;;;9.20;100.00
12879;BME280;20617;49.476;10.986;2023-05-03T05:53:53;99207.53;;;9.49;100.00
12879;BME280;20617;49.476;10.986;2023-05-03T05:55:59;99212.56;;;9.57;100.00
12879;BME280;20617;49.476;10.986;2023-05-03T05:58:06;99218.59;;;9.59;100.00
12879;BME280;20617;49.476;10.986;2023-05-03T06:00:18;99215.97;;;9.60;100.00
12879;BME280;20617;49.476;10.986;2023-05-03T06:02:23;99211.69;;;9.56;100.00
12879;BME280;20617;49.476;10.986;2023-05-03T06:04:29;99211.91;;;9.48;100.00
12879;BME280;20617;49.476;10.986;2023-05-03T06:06:34;99216.06;;;9.56;100.00
12879;BME280;20617;49.476;10.986;2023-05-03T06:08:42;99210.84;;;9.56;100.00
12879;BME280;20617;49.476;10.986;2023-05-03T06:10:50;99209.94;;;9.58;100.00
12879;BME280;20617;49.476;10.986;2023-05-03T06:12:58;99216.69;;;9.65;100.00
12879;BME280;20617;49.476;10.986;2023-05-03T06:15:04;99213.31;;;9.62;100.00
12879;BME280;20617;49.476;10.986;2023-05-03T06:17:11;99206.22;;;9.68;100.00
12879;BME280;20617;49.476;10.986;2023-05-03T06:19:16;99207.97;;;9.68;100.00
12879;BME280;20617;49.476;10.986;2023-05-03T06:21:24;99207.56;;;9.85;100.00
12879;BME280;20617;49.476;10.986;2023-05-03T06:23:31;99209.41;;;9.80;100.00
12879;BME280;20617;49.476;10.986;2023-05-03T06:25:40;99207.25;;;9.98;100.00
12879;BME280;20617;49.476;10.986;2023-05-03T06:27:45;99204.50;;;10.03;100.00
12879;BME280;20617;49.476;10.986;2023-05-03T06:29:52;99206.03;;;10.12;100.00
12879;BME280;20617;49.476;10.986;2023-05-03T06:31:57;99205.25;;;10.10;100.00
12879;BME280;20617;49.476;10.986;2023-05-03T06:34:02;99194.47;;;10.24;100.00
12879;BME280;20617;49.476;10.986;2023-05-03T06:36:12;99198.31;;;10.45;100.00
12879;BME280;20617;49.476;10.986;2023-05-03T06:38:17;99191.09;;;10.54;100.00
12879;BME280;20617;49.476;10.986;2023-05-03T06:40:22;99194.28;;;10.65;100.00
12879;BME280;20617;49.476;10.986;2023-05-03T06:42:31;99193.81;;;10.82;100.00
12879;BME280;20617;49.476;10.986;2023-05-03T06:44:42;99197.00;;;10.92;100.00
12879;BME280;20617;49.476;10.986;2023-05-03T06:46:50;99196.00;;;10.96;100.00
12879;BME280;20617;49.476;10.986;2023-05-03T06:48:55;99191.59;;;10.98;100.00
12879;BME280;20617;49.476;10.986;2023-05-03T06:51:00;99195.03;;;11.00;100.00
12879;BME280;20617;49.476;10.986;2023-05-03T06:53:06;99188.25;;;10.95;100.00
12879;BME280;20617;49.476;10.986;2023-05-03T06:55:11;99187.44;;;10.93;100.00
12879;BME280;20617;49.476;10.986;2023-05-03T06:57:16;99192.59;;;10.94;100.00
12879;BME280;20617;49.476;10.986;2023-05-03T06:59:23;99192.72;;;10.90;100.00
12879;BME280;20617;49.476;10.986;2023-05-03T07:01:29;99187.50;;;10.90;100.00
12879;BME280;20617;49.476;10.986;2023-05-03T07:03:36;99189.91;;;10.97;100.00
12879;BME280;20617;49.476;10.986;2023-05-03T07:05:42;99185.81;;;11.18;100.00
12879;BME280;20617;49.476;10.986;2023-05-03T07:07:48;99182.56;;;11.12;100.00
12879;BME280;20617;49.476;10.986;2023-05-03T07:09:53;99182.28;;;11.21;100.00
12879;BME280;20617;49.476;10.986;2023-05-03T07:11:58;99181.16;;;11.29;100.00
12879;BME280;20617;49.476;10.986;2023-05-03T07:14:03;99181.47;;;11.19;100.00
12879;BME280;20617;49.476;10.986;2023-05-03T07:16:10;99181.22;;;11.54;100.00
12879;BME280;20617;49.476;10.986;2023-05-03T07:18:15;99172.44;;;11.59;100.00
12879;BME280;20617;49.476;10.986;2023-05-03T07:20:20;99167.97;;;11.62;100.00
12879;BME280;20617;49.476;10.986;2023-05-03T07:22:25;99173.06;;;11.65;100.00
12879;BME280;20617;49.476;10.986;2023-05-03T07:24:30;99162.31;;;11.76;100.00
12879;BME280;20617;49.476;10.986;2023-05-03T07:26:35;99160.00;;;11.67;100.00
12879;BME280;20617;49.476;10.986;2023-05-03T07:28:41;99152.84;;;11.72;100.00
12879;BME280;20617;49.476;10.986;2023-05-03T07:30:46;99153.47;;;11.80;100.00
12879;BME280;20617;49.476;10.986;2023-05-03T07:32:53;99150.31;;;11.70;100.00
12879;BME280;20617;49.476;10.986;2023-05-03T07:34:58;99153.75;;;11.72;100.00
12879;BME280;20617;49.476;10.986;2023-05-03T07:37:04;99138.84;;;11.76;100.00
12879;BME280;20617;49.476;10.986;2023-05-03T07:39:09;99144.59;;;11.87;100.00
12879;BME280;20617;49.476;10.986;2023-05-03T07:41:14;99147.03;;;11.92;100.00
12879;BME280;20617;49.476;10.986;2023-05-03T07:43:19;99138.75;;;12.06;100.00
12879;BME280;20617;49.476;10.986;2023-05-03T07:45:24;99136.03;;;12.09;100.00
12879;BME280;20617;49.476;10.986;2023-05-03T07:47:29;99134.94;;;12.16;100.00
12879;BME280;20617;49.476;10.986;2023-05-03T07:49:41;99127.44;;;12.30;100.00
12879;BME280;20617;49.476;10.986;2023-05-03T07:51:46;99134.97;;;12.39;100.00
12879;BME280;20617;49.476;10.986;2023-05-03T07:53:51;99128.22;;;12.57;100.00
12879;BME280;20617;49.476;10.986;2023-05-03T07:55:56;99123.00;;;12.57;100.00
12879;BME280;20617;49.476;10.986;2023-05-03T07:58:01;99129.22;;;12.53;100.00
12879;BME280;20617;49.476;10.986;2023-05-03T08:00:07;99125.84;;;12.51;100.00
12879;BME280;20617;49.476;10.986;2023-05-03T08:02:13;99126.50;;;12.56;100.00
12879;BME280;20617;49.476;10.986;2023-05-03T08:04:19;99127.28;;;12.60;100.00
12879;BME280;20617;49.476;10.986;2023-05-03T08:06:28;99123.75;;;12.61;100.00
12879;BME280;20617;49.476;10.986;2023-05-03T08:08:33;99126.75;;;12.74;100.00
12879;BME280;20617;49.476;10.986;2023-05-03T08:10:39;99121.97;;;12.61;100.00
12879;BME280;20617;49.476;10.986;2023-05-03T08:12:44;99122.59;;;12.68;100.00
12879;BME280;20617;49.476;10.986;2023-05-03T08:14:50;99120.41;;;12.81;100.00
12879;BME280;20617;49.476;10.986;2023-05-03T08:16:55;99121.59;;;12.72;100.00
12879;BME280;20617;49.476;10.986;2023-05-03T08:19:00;99120.91;;;12.90;100.00
12879;BME280;20617;49.476;10.986;2023-05-03T08:21:05;99115.84;;;13.09;100.00
12879;BME280;20617;49.476;10.986;2023-05-03T08:23:15;99114.50;;;13.21;100.00
12879;BME280;20617;49.476;10.986;2023-05-03T08:25:20;99118.25;;;13.14;100.00
12879;BME280;20617;49.476;10.986;2023-05-03T08:27:27;99109.19;;;13.23;100.00
12879;BME280;20617;49.476;10.986;2023-05-03T08:29:31;99112.56;;;13.26;100.00
12879;BME280;20617;49.476;10.986;2023-05-03T08:31:38;99109.13;;;13.26;100.00
12879;BME280;20617;49.476;10.986;2023-05-03T08:33:43;99112.22;;;13.35;100.00
12879;BME280;20617;49.476;10.986;2023-05-03T08:35:48;99119.19;;;13.35;100.00
12879;BME280;20617;49.476;10.986;2023-05-03T08:37:53;99114.28;;;13.27;100.00
12879;BME280;20617;49.476;10.986;2023-05-03T08:40:03;99104.25;;;13.39;100.00
12879;BME280;20617;49.476;10.986;2023-05-03T08:42:09;99111.34;;;13.35;100.00
12879;BME280;20617;49.476;10.986;2023-05-03T08:44:19;99109.28;;;13.43;100.00
12879;BME280;20617;49.476;10.986;2023-05-03T08:46:26;99105.72;;;13.46;100.00
12879;BME280;20617;49.476;10.986;2023-05-03T08:48:31;99105.69;;;13.68;100.00
12879;BME280;20617;49.476;10.986;2023-05-03T08:50:37;99107.81;;;13.58;100.00
12879;BME280;20617;49.476;10.986;2023-05-03T08:52:43;99107.09;;;13.76;100.00
12879;BME280;20617;49.476;10.986;2023-05-03T08:54:48;99108.72;;;13.79;100.00
12879;BME280;20617;49.476;10.986;2023-05-03T08:56:56;99110.75;;;13.93;100.00
12879;BME280;20617;49.476;10.986;2023-05-03T08:59:01;99108.94;;;14.15;100.00
12879;BME280;20617;49.476;10.986;2023-05-03T09:01:09;99114.81;;;14.20;100.00
12879;BME280;20617;49.476;10.986;2023-05-03T09:03:15;99109.44;;;14.23;100.00
12879;BME280;20617;49.476;10.986;2023-05-03T09:05:33;99114.56;;;14.26;100.00
12879;BME280;20617;49.476;10.986;2023-05-03T09:07:40;99111.09;;;14.26;100.00
12879;BME280;20617;49.476;10.986;2023-05-03T09:09:46;99111.38;;;14.20;100.00
12879;BME280;20617;49.476;10.986;2023-05-03T09:11:51;99110.69;;;14.15;100.00
12879;BME280;20617;49.476;10.986;2023-05-03T09:14:10;99112.88;;;14.25;100.00
12879;BME280;20617;49.476;10.986;2023-05-03T09:16:22;99110.13;;;14.47;100.00
12879;BME280;20617;49.476;10.986;2023-05-03T09:18:28;99103.34;;;14.64;100.00
12879;BME280;20617;49.476;10.986;2023-05-03T09:20:34;99100.63;;;14.65;100.00
12879;BME280;20617;49.476;10.986;2023-05-03T09:22:49;99108.66;;;14.81;100.00
12879;BME280;20617;49.476;10.986;2023-05-03T09:24:56;99101.94;;;14.76;100.00
12879;BME280;20617;49.476;10.986;2023-05-03T09:27:16;99102.50;;;14.82;100.00
12879;BME280;20617;49.476;10.986;2023-05-03T09:29:32;99104.69;;;14.91;100.00
12879;BME280;20617;49.476;10.986;2023-05-03T09:31:57;99104.97;;;15.04;100.00
12879;BME280;20617;49.476;10.986;2023-05-03T09:34:20;99105.09;;;15.20;100.00
12879;BME280;20617;49.476;10.986;2023-05-03T09:36:25;99103.13;;;15.25;100.00
12879;BME280;20617;49.476;10.986;2023-05-03T09:38:33;99105.25;;;15.17;100.00
12879;BME280;20617;49.476;10.986;2023-05-03T09:40:45;99106.38;;;15.11;100.00
12879;BME280;20617;49.476;10.986;2023-05-03T09:43:05;99104.09;;;15.23;100.00
12879;BME280;20617;49.476;10.986;2023-05-03T09:45:22;99107.28;;;15.29;100.00
12879;BME280;20617;49.476;10.986;2023-05-03T09:47:28;99100.41;;;15.27;100.00
12879;BME280;20617;49.476;10.986;2023-05-03T09:49:37;99098.97;;;15.38;100.00
12879;BME280;20617;49.476;10.986;2023-05-03T09:51:43;99093.00;;;15.54;100.00
12879;BME280;20617;49.476;10.986;2023-05-03T09:53:48;99103.41;;;15.55;100.00
12879;BME280;20617;49.476;10.986;2023-05-03T09:55:55;99094.97;;;15.49;100.00
12879;BME280;20617;49.476;10.986;2023-05-03T09:58:01;99090.34;;;15.36;100.00
12879;BME280;20617;49.476;10.986;2023-05-03T10:00:09;99093.91;;;15.16;100.00
12879;BME280;20617;49.476;10.986;2023-05-03T10:02:17;99098.03;;;15.03;100.00
12879;BME280;20617;49.476;10.986;2023-05-03T10:04:24;99091.94;;;15.22;100.00
12879;BME280;20617;49.476;10.986;2023-05-03T10:06:30;99097.09;;;15.23;100.00
12879;BME280;20617;49.476;10.986;2023-05-03T10:08:40;99090.44;;;15.16;100.00
12879;BME280;20617;49.476;10.986;2023-05-03T10:10:48;99084.66;;;15.27;100.00
12879;BME280;20617;49.476;10.986;2023-05-03T10:12:55;99079.41;;;15.27;100.00
12879;BME280;20617;49.476;10.986;2023-05-03T10:15:02;99085.31;;;15.32;100.00
12879;BME280;20617;49.476;10.986;2023-05-03T10:17:13;99080.00;;;15.33;100.00
12879;BME280;20617;49.476;10.986;2023-05-03T10:19:26;99075.28;;;15.40;100.00
12879;BME280;20617;49.476;10.986;2023-05-03T10:21:41;99071.72;;;15.41;100.00
12879;BME280;20617;49.476;10.986;2023-05-03T10:24:08;99064.19;;;15.52;100.00
12879;BME280;20617;49.476;10.986;2023-05-03T10:26:14;99070.91;;;15.58;100.00
12879;BME280;20617;49.476;10.986;2023-05-03T10:28:20;99065.78;;;15.74;100.00
12879;BME280;20617;49.476;10.986;2023-05-03T10:30:29;99060.06;;;15.83;100.00
12879;BME280;20617;49.476;10.986;2023-05-03T10:32:36;99059.34;;;15.97;100.00
12879;BME280;20617;49.476;10.986;2023-05-03T10:34:46;99062.84;;;16.15;100.00
12879;BME280;20617;49.476;10.986;2023-05-03T10:36:52;99059.44;;;16.13;100.00
12879;BME280;20617;49.476;10.986;2023-05-03T10:38:57;99059.41;;;16.30;100.00
12879;BME280;20617;49.476;10.986;2023-05-03T10:41:02;99059.28;;;16.32;100.00
12879;BME280;20617;49.476;10.986;2023-05-03T10:43:42;99061.41;;;16.25;100.00
12879;BME280;20617;49.476;10.986;2023-05-03T10:45:50;99063.94;;;16.44;100.00
12879;BME280;20617;49.476;10.986;2023-05-03T10:48:16;99057.56;;;16.48;100.00
12879;BME280;20617;49.476;10.986;2023-05-03T10:50:27;99059.00;;;16.38;100.00
12879;BME280;20617;49.476;10.986;2023-05-03T10:52:47;99055.78;;;16.48;100.00
12879;BME280;20617;49.476;10.986;2023-05-03T10:54:52;99055.78;;;16.48;100.00
12879;BME280;20617;49.476;10.986;2023-05-03T10:56:57;99059.69;;;16.57;100.00
12879;BME280;20617;49.476;10.986;2023-05-03T10:59:02;99058.84;;;16.41;100.00
12879;BME280;20617;49.476;10.986;2023-05-03T11:01:09;99056.72;;;16.47;100.00